Airfield :
LOGIN :

Register | Disclaimer

   EN    FR    IT 

 










Legend :    VFR   Marginal VFR   IFR   Intensive IFR   Very Intensive IFR
Visi :
Ceiling :
>= 8 km
>= 3000ft
5 to 8 km
1000 to 3000 ft
1500m to 5 km
500 to 1000 ft
800 to 1500m
200 to 500 ft
< 800m
< 200 ft
Symbols :   Thunderstorms  Fog  Heavy snow  Heavy precipitations  Wind > 20 kt
SIGMETs :     Misc.  Thunderstorms  Icing  Turbulence  Mountain Waves  Volcanic Ashes






- Airport Elevation : 184 ft
- IATA code : BRU


EBBR - Bruxelles

CURRENT METAR :
  • 021450Z 27013KT 9999 -SHRA BKN025 09/06 Q1026 NOSIG

EXPIRED METARs :
  • 021420Z 25010KT 9999 BKN025 10/05 Q1026 NOSIG
  • 021350Z 26013KT 9999 SCT025 10/05 Q1026 NOSIG
  • 021320Z 28015KT 9999 BKN025 10/05 Q1026 NOSIG
  • 021250Z 26013KT 9999 SCT024 10/05 Q1026 NOSIG
  • 021220Z 26013KT 9999 SCT024 SCT048 10/05 Q1026 NOSIG

TAF TAF EBBR
Valid from the 02 at 12:00 until the 03 at 18:00 UTC


021110Z 0212/0318 26013KT 9999 FEW012 BKN025
PROB30
TEMPO 0212/0318 BKN012



MET'MAP, your aeronautical weather chart ! - Copyright ORBIFLY December 2007 - Disclaimer

ORBIFLY MET'MAP TEAM :

Programming & Development : Alexandra Zaïnal
Original concept : Baudouin d'Aumeries
Technical & hardware support : Manuel Goepfert
Assistance : Marc-Olivier Méhu




SOURCES & CREDITS :

   NOAA